createdAt,value
2019-01-06T00:02:15.983Z,2.90
2019-01-06T00:07:30.200Z,2.60
2019-01-06T00:12:32.813Z,2.67
2019-01-06T00:17:40.037Z,2.17
2019-01-06T00:22:40.619Z,3.37
2019-01-06T00:27:44.186Z,1.93
2019-01-06T00:38:04.994Z,2.13
2019-01-06T00:43:14.574Z,2.50
2019-01-06T00:48:28.992Z,3.23
2019-01-06T00:53:26.802Z,1.80
2019-01-06T00:58:41.451Z,1.90
2019-01-06T01:09:02.606Z,1.63
2019-01-06T01:14:03.305Z,0.60
2019-01-06T01:19:16.104Z,3.27
2019-01-06T01:24:22.837Z,3.20
2019-01-06T01:29:26.372Z,3.53
2019-01-06T01:34:39.314Z,3.20
2019-01-06T01:39:53.469Z,3.30
2019-01-06T01:44:51.285Z,2.43
2019-01-06T01:49:54.963Z,2.50
2019-01-06T01:54:55.611Z,2.73
2019-01-06T02:00:02.575Z,3.37
2019-01-06T02:05:00.383Z,4.10
2019-01-06T02:09:58.201Z,3.37
2019-01-06T02:15:05.120Z,2.53
2019-01-06T02:20:02.941Z,2.37
2019-01-06T02:25:17.574Z,2.30
2019-01-06T02:30:24.683Z,1.97
2019-01-06T02:35:39.133Z,3.40
2019-01-06T02:40:36.938Z,2.30
2019-01-06T02:45:40.569Z,2.23
2019-01-06T02:50:50.585Z,3.40
2019-01-06T02:56:05.016Z,2.07
2019-01-06T03:01:19.919Z,5.50
2019-01-06T03:06:34.514Z,4.00
2019-01-06T03:11:34.975Z,2.70
2019-01-06T03:16:32.777Z,2.43
2019-01-06T03:21:30.683Z,1.80
2019-01-06T03:26:37.769Z,4.17
2019-01-06T03:31:38.590Z,3.43
2019-01-06T03:36:48.488Z,4.40
2019-01-06T03:41:51.831Z,3.07
2019-01-06T03:47:08.081Z,4.83
2019-01-06T03:52:14.984Z,5.47
2019-01-06T03:57:21.794Z,6.40
2019-01-06T04:02:25.427Z,4.17
2019-01-06T04:07:41.415Z,5.47
2019-01-06T04:12:42.510Z,2.50
2019-01-06T04:17:40.317Z,2.60
2019-01-06T04:22:50.338Z,3.07
2019-01-06T04:28:05.106Z,4.63
2019-01-06T04:33:21.325Z,3.53
2019-01-06T04:38:21.911Z,17.37
2019-01-06T04:43:22.346Z,2.77
2019-01-06T04:48:26.180Z,4.40
2019-01-06T04:53:33.042Z,1.43
2019-01-06T04:58:45.915Z,2.10
2019-01-06T05:04:02.119Z,6.33
2019-01-06T05:09:16.660Z,3.87
2019-01-06T05:14:31.351Z,3.87
2019-01-06T05:19:39.393Z,3.97
2019-01-06T05:24:46.012Z,1.70
2019-01-06T05:29:43.837Z,3.37
2019-01-06T05:34:51.243Z,4.50
2019-01-06T05:40:07.137Z,6.60
2019-01-06T05:45:05.770Z,4.57
2019-01-06T05:50:07.114Z,4.47
2019-01-06T05:55:05.379Z,5.40
2019-01-06T06:00:19.827Z,4.27
2019-01-06T06:05:33.992Z,2.90
2019-01-06T06:10:48.206Z,4.47
2019-01-06T06:15:58.211Z,2.40
2019-01-06T06:21:11.362Z,2.77
2019-01-06T06:26:21.548Z,4.03
2019-01-06T06:31:22.205Z,1.97
2019-01-06T06:36:28.959Z,2.53
2019-01-06T06:41:32.578Z,2.37
2019-01-06T06:46:33.420Z,3.63
2019-01-06T06:57:31.587Z,3.73
2019-01-06T07:02:51.329Z,2.93
2019-01-06T07:07:49.139Z,5.70
2019-01-06T07:12:46.982Z,4.60
2019-01-06T07:17:46.706Z,5.07
2019-01-06T07:22:53.627Z,6.07
2019-01-06T07:27:51.528Z,3.53
2019-01-06T07:32:52.301Z,5.83
2019-01-06T07:38:08.372Z,5.20
2019-01-06T07:43:21.467Z,7.07
2019-01-06T07:48:20.110Z,6.13
2019-01-06T07:53:34.873Z,7.87
2019-01-06T07:58:35.687Z,5.83
2019-01-06T08:03:36.474Z,5.27
2019-01-06T08:08:36.832Z,5.50
2019-01-06T08:18:55.034Z,5.40
2019-01-06T08:23:56.072Z,6.73
2019-01-06T08:29:09.196Z,5.87
2019-01-06T08:34:25.453Z,5.17
2019-01-06T08:39:32.336Z,19.17
2019-01-06T08:44:39.895Z,4.07
2019-01-06T08:49:41.288Z,6.30
2019-01-06T08:54:55.663Z,7.10
2019-01-06T09:00:05.835Z,9.90
2019-01-06T09:05:12.671Z,9.93
2019-01-06T09:10:27.312Z,6.30
2019-01-06T09:15:25.140Z,4.43
2019-01-06T09:20:32.243Z,6.43
2019-01-06T09:30:46.089Z,6.87
2019-01-06T09:36:00.852Z,4.43
2019-01-06T09:40:58.700Z,6.50
2019-01-06T09:45:56.519Z,5.73
2019-01-06T09:51:11.250Z,8.97
2019-01-06T09:56:12.071Z,7.07
2019-01-06T10:01:24.787Z,11.83
2019-01-06T10:06:39.516Z,3.70
2019-01-06T10:11:37.328Z,9.17
2019-01-06T10:16:35.148Z,3.83
2019-01-06T10:21:41.737Z,7.50
2019-01-06T10:26:56.228Z,6.20
2019-01-06T10:32:12.454Z,10.57
2019-01-06T10:37:27.218Z,7.43
2019-01-06T10:42:27.943Z,3.33
2019-01-06T10:47:25.759Z,4.13
2019-01-06T10:52:32.663Z,4.90
2019-01-06T10:57:47.479Z,5.20
2019-01-06T11:03:02.232Z,4.10
2019-01-06T11:08:00.956Z,6.97
2019-01-06T11:13:01.421Z,2.83
2019-01-06T11:18:14.644Z,8.13
2019-01-06T11:23:15.242Z,6.60
2019-01-06T11:28:19.299Z,7.20
2019-01-06T11:33:25.998Z,3.63
2019-01-06T11:38:30.077Z,2.40
2019-01-06T11:43:27.874Z,4.70
2019-01-06T11:48:42.738Z,3.63
2019-01-06T11:53:46.284Z,5.00
2019-01-06T11:58:46.633Z,3.60
2019-01-06T12:03:44.442Z,2.07
2019-01-06T12:08:51.376Z,3.73
2019-01-06T12:13:49.175Z,3.37
2019-01-06T12:19:04.905Z,3.23
2019-01-06T12:24:08.748Z,2.07
2019-01-06T12:29:15.559Z,5.67
2019-01-06T12:34:29.824Z,3.30
2019-01-06T12:39:44.293Z,2.40
2019-01-06T12:44:48.190Z,2.27
2019-01-06T12:49:49.756Z,10.53
2019-01-06T12:54:53.126Z,1.57
2019-01-06T12:59:50.934Z,3.90
2019-01-06T13:05:05.797Z,1.57
2019-01-06T13:10:03.716Z,4.83
2019-01-06T13:15:10.382Z,4.53
2019-01-06T13:20:24.944Z,3.47
2019-01-06T13:25:28.795Z,5.43
2019-01-06T13:30:38.889Z,5.80
2019-01-06T13:35:53.369Z,3.33
2019-01-06T13:41:02.819Z,4.67
2019-01-06T13:46:06.241Z,3.07
2019-01-06T13:51:19.126Z,4.40
2019-01-06T13:56:33.628Z,5.30
2019-01-06T14:01:49.472Z,5.17
2019-01-06T14:06:47.357Z,3.70
2019-01-06T14:22:08.359Z,5.60
2019-01-06T14:27:06.175Z,6.87
2019-01-06T14:32:07.064Z,5.33
2019-01-06T14:37:10.734Z,4.67
2019-01-06T14:42:25.510Z,6.90
2019-01-06T14:47:39.942Z,8.90
2019-01-06T14:52:54.172Z,5.87
2019-01-06T14:57:55.271Z,16.73
2019-01-06T15:02:53.133Z,17.67
2019-01-06T15:08:09.156Z,23.97
2019-01-06T15:13:07.019Z,8.53
2019-01-06T15:18:10.556Z,13.20
2019-01-06T15:23:20.434Z,11.80
2019-01-06T15:28:21.040Z,8.40
2019-01-06T15:33:21.577Z,12.87
2019-01-06T15:43:56.753Z,13.90
2019-01-06T15:49:06.919Z,38.97
2019-01-06T15:54:10.381Z,11.37
2019-01-06T15:59:14.396Z,17.03
2019-01-06T16:04:19.702Z,17.37
2019-01-06T16:09:35.661Z,14.07
2019-01-06T16:14:33.563Z,11.30
2019-01-06T16:19:50.430Z,6.23
2019-01-06T16:24:51.233Z,9.90
2019-01-06T16:29:51.881Z,10.60
2019-01-06T16:35:05.090Z,12.63
2019-01-06T16:40:03.014Z,7.57
2019-01-06T16:45:10.124Z,12.03
2019-01-06T16:50:25.176Z,8.77
2019-01-06T16:55:23.188Z,7.97
2019-01-06T17:00:37.663Z,12.27
2019-01-06T17:05:50.613Z,17.90
2019-01-06T17:11:05.059Z,20.40
2019-01-06T17:16:08.814Z,14.80
2019-01-06T17:21:06.665Z,19.13
2019-01-06T17:26:23.495Z,21.13
2019-01-06T17:31:27.498Z,16.03
2019-01-06T17:36:28.071Z,20.90
2019-01-06T17:41:28.895Z,16.23
2019-01-06T17:46:27.052Z,22.97
2019-01-06T17:51:42.034Z,16.57
2019-01-06T17:56:56.645Z,29.13
2019-01-06T18:01:54.697Z,23.13
2019-01-06T18:07:09.371Z,18.90
2019-01-06T18:12:23.828Z,12.57
2019-01-06T18:22:38.048Z,8.50
2019-01-06T18:27:35.865Z,16.87
2019-01-06T18:32:33.672Z,23.00
2019-01-06T18:37:48.020Z,18.13
2019-01-06T18:42:45.955Z,29.13
2019-01-06T18:47:56.197Z,28.93
2019-01-06T18:52:54.054Z,20.63
2019-01-06T18:57:54.599Z,26.90
2019-01-06T19:02:52.403Z,32.50
2019-01-06T19:07:53.051Z,24.53
2019-01-06T19:12:50.969Z,21.13
2019-01-06T19:17:57.860Z,15.20
2019-01-06T19:23:17.863Z,12.80
2019-01-06T19:28:28.684Z,18.70
2019-01-06T19:33:43.332Z,20.77
2019-01-06T19:38:46.710Z,18.43
2019-01-06T19:44:01.346Z,17.47
2019-01-06T19:49:03.329Z,21.17
2019-01-06T19:54:01.228Z,17.43
2019-01-06T19:58:59.073Z,16.90
2019-01-06T20:04:13.730Z,18.93
2019-01-06T20:09:11.647Z,24.53
2019-01-06T20:19:40.440Z,20.40
2019-01-06T20:24:56.628Z,10.87
2019-01-06T20:29:54.486Z,17.77
2019-01-06T20:35:09.118Z,12.80
2019-01-06T20:40:14.236Z,20.27
2019-01-06T20:50:28.639Z,17.53
2019-01-06T20:55:43.329Z,14.50
2019-01-06T21:00:50.108Z,16.23
2019-01-06T21:05:51.565Z,22.23
2019-01-06T21:11:07.937Z,20.30
2019-01-06T21:16:24.178Z,18.13
2019-01-06T21:21:37.048Z,11.27
2019-01-06T21:26:37.810Z,9.73
2019-01-06T21:31:52.458Z,14.30
2019-01-06T21:36:58.622Z,18.30
2019-01-06T21:42:05.364Z,24.13
2019-01-06T21:47:03.160Z,20.00
2019-01-06T21:52:03.861Z,21.03
2019-01-06T21:57:17.491Z,27.07
2019-01-06T22:07:27.994Z,27.37
2019-01-06T22:12:31.487Z,20.17
2019-01-06T22:22:52.216Z,22.43
2019-01-06T22:33:12.562Z,32.43
2019-01-06T22:38:25.486Z,28.73
2019-01-06T22:43:28.854Z,30.23
2019-01-06T22:48:30.281Z,30.90
2019-01-06T22:53:28.091Z,17.90
2019-01-06T22:58:25.895Z,14.80
2019-01-06T23:03:35.626Z,32.10
2019-01-06T23:08:33.462Z,31.43
2019-01-06T23:13:48.020Z,15.93
2019-01-06T23:19:11.022Z,25.93
2019-01-06T23:24:14.956Z,28.00
2019-01-06T23:29:12.763Z,22.50
2019-01-06T23:34:13.320Z,30.63
2019-01-06T23:39:20.359Z,14.77
2019-01-06T23:49:38.109Z,35.37
2019-01-06T23:54:52.245Z,26.67
